createdAt,value
2016-08-10T00:00:57.675Z,99.99
2016-08-10T00:01:57.692Z,99.99
2016-08-10T00:02:58.433Z,99.99
2016-08-10T00:03:58.443Z,99.99
2016-08-10T00:04:58.461Z,99.99
2016-08-10T00:05:57.782Z,99.99
2016-08-10T00:06:57.800Z,99.99
2016-08-10T00:07:58.581Z,99.99
2016-08-10T00:08:58.530Z,99.99
2016-08-10T00:09:58.562Z,99.99
2016-08-10T00:10:58.580Z,99.99
2016-08-10T00:11:58.591Z,99.99
2016-08-10T00:12:58.609Z,99.99
2016-08-10T00:13:58.631Z,99.99
2016-08-10T00:14:58.651Z,99.99
2016-08-10T00:15:58.764Z,99.99
2016-08-10T00:16:57.981Z,99.99
2016-08-10T00:17:58.716Z,99.99
2016-08-10T00:18:58.734Z,99.99
2016-08-10T00:19:58.742Z,99.99
2016-08-10T00:20:58.770Z,99.99
2016-08-10T00:21:58.802Z,99.99
2016-08-10T00:22:58.099Z,99.99
2016-08-10T00:23:58.832Z,99.99
2016-08-10T00:24:58.136Z,99.99
2016-08-10T00:25:58.860Z,99.99
2016-08-10T00:26:58.885Z,99.99
2016-08-10T00:27:58.900Z,99.99
2016-08-10T00:28:58.231Z,99.99
2016-08-10T00:29:58.940Z,99.99
2016-08-10T00:30:58.268Z,99.99
2016-08-10T00:31:58.368Z,99.99
2016-08-10T00:32:59.001Z,99.99
2016-08-10T00:33:59.042Z,99.99
2016-08-10T00:34:59.041Z,99.99
2016-08-10T00:35:59.130Z,99.99
2016-08-10T00:36:58.372Z,99.99
2016-08-10T00:37:58.390Z,99.99
2016-08-10T00:38:59.113Z,99.99
2016-08-10T00:39:59.139Z,99.99
2016-08-10T00:40:59.158Z,99.99
2016-08-10T00:41:58.452Z,99.99
2016-08-10T00:42:58.473Z,99.99
2016-08-10T00:43:59.227Z,99.99
2016-08-10T00:44:58.666Z,99.99
2016-08-10T00:45:59.241Z,99.99
2016-08-10T00:46:58.692Z,99.99
2016-08-10T00:47:58.580Z,99.99
2016-08-10T00:48:58.602Z,99.99
2016-08-10T00:49:59.323Z,99.99
2016-08-10T00:50:58.690Z,99.99
2016-08-10T00:51:58.660Z,99.99
2016-08-10T00:52:58.684Z,99.99
2016-08-10T00:53:58.700Z,99.99
2016-08-10T00:54:58.706Z,99.99
2016-08-10T00:55:59.438Z,99.99
2016-08-10T00:56:59.450Z,99.99
2016-08-10T00:57:58.773Z,99.99
2016-08-10T00:58:59.489Z,99.99
2016-08-10T00:59:58.820Z,99.99
2016-08-10T01:00:59.536Z,99.99
2016-08-10T01:01:59.592Z,99.99
2016-08-10T01:02:58.873Z,99.99
2016-08-10T01:03:59.576Z,99.99
2016-08-10T01:04:58.901Z,99.99
2016-08-10T01:05:58.923Z,99.99
2016-08-10T01:06:59.647Z,99.99
2016-08-10T01:07:58.958Z,99.99
2016-08-10T01:08:59.693Z,99.99
2016-08-10T01:09:58.990Z,99.99
2016-08-10T01:10:59.019Z,99.99
2016-08-10T01:11:59.033Z,99.99
2016-08-10T01:12:59.070Z,99.99
2016-08-10T01:13:59.081Z,99.99
2016-08-10T01:14:59.856Z,99.99
2016-08-10T01:15:59.108Z,99.99
2016-08-10T01:16:59.152Z,99.99
2016-08-10T01:17:59.849Z,99.99
2016-08-10T01:18:59.871Z,99.99
2016-08-10T01:19:59.891Z,99.99
2016-08-10T01:21:00.521Z,99.99
2016-08-10T01:21:59.931Z,99.99
2016-08-10T01:22:59.251Z,99.99
2016-08-10T01:23:59.278Z,99.99
2016-08-10T01:24:59.291Z,99.99
2016-08-10T01:25:59.301Z,99.99
2016-08-10T01:27:00.024Z,99.99
2016-08-10T01:28:00.055Z,99.99
2016-08-10T01:28:59.371Z,99.99
2016-08-10T01:30:00.087Z,99.99
2016-08-10T01:30:59.401Z,99.99
2016-08-10T01:32:00.137Z,99.99
2016-08-10T01:33:00.144Z,99.99
2016-08-10T01:34:00.161Z,99.99
2016-08-10T01:34:59.480Z,99.99
2016-08-10T01:35:59.512Z,99.99
2016-08-10T01:37:00.216Z,99.99
2016-08-10T01:37:59.535Z,99.99
2016-08-10T01:39:00.261Z,99.99
2016-08-10T01:40:00.292Z,99.99
2016-08-10T01:41:00.291Z,99.99
2016-08-10T01:42:00.320Z,99.99
2016-08-10T01:42:59.635Z,99.99
2016-08-10T01:44:00.363Z,99.99
2016-08-10T01:45:00.391Z,99.99
2016-08-10T01:46:00.396Z,99.99
2016-08-10T01:47:00.438Z,99.99
2016-08-10T01:47:59.725Z,99.99
2016-08-10T01:49:00.461Z,99.99
2016-08-10T01:49:59.763Z,99.99
2016-08-10T01:51:00.500Z,99.99
2016-08-10T01:52:00.523Z,99.99
2016-08-10T01:52:59.829Z,99.99
2016-08-10T01:54:00.572Z,99.99
2016-08-10T01:55:00.563Z,99.99
2016-08-10T01:56:00.582Z,99.99
2016-08-10T01:57:00.607Z,99.99
2016-08-10T01:58:00.633Z,99.99
2016-08-10T01:59:00.651Z,99.99
2016-08-10T01:59:59.963Z,99.99
2016-08-10T02:01:00.692Z,99.99
2016-08-10T02:02:00.707Z,99.99
2016-08-10T02:03:00.726Z,99.99
2016-08-10T02:04:00.754Z,99.99
2016-08-10T02:05:00.765Z,99.99
2016-08-10T02:06:00.781Z,99.99
2016-08-10T02:07:00.103Z,99.99
2016-08-10T02:09:00.993Z,99.99
2016-08-10T02:10:00.851Z,99.99
2016-08-10T02:11:00.873Z,99.99
2016-08-10T02:12:00.897Z,99.99
2016-08-10T02:13:00.210Z,99.99
2016-08-10T02:14:00.225Z,99.99
2016-08-10T02:15:00.952Z,99.99
2016-08-10T02:16:01.040Z,99.99
2016-08-10T02:17:00.284Z,99.99
2016-08-10T02:18:00.320Z,99.99
2016-08-10T02:19:01.032Z,99.99
2016-08-10T02:20:00.352Z,99.99
2016-08-10T02:21:01.059Z,99.99
2016-08-10T02:22:00.383Z,99.99
2016-08-10T02:24:00.430Z,99.99
2016-08-10T02:25:01.152Z,99.99
2016-08-10T02:26:00.461Z,99.99
2016-08-10T02:27:00.583Z,99.99
2016-08-10T02:28:00.503Z,99.99
2016-08-10T02:29:00.563Z,99.99
2016-08-10T02:30:01.241Z,99.99
2016-08-10T02:31:00.612Z,99.99
2016-08-10T02:32:00.577Z,99.99
2016-08-10T02:33:00.591Z,99.99
2016-08-10T02:34:01.320Z,99.99
2016-08-10T02:35:00.632Z,99.99
2016-08-10T02:36:01.363Z,99.99
2016-08-10T02:37:00.673Z,99.99
2016-08-10T02:38:01.400Z,99.99
2016-08-10T02:39:01.414Z,99.99
2016-08-10T02:40:00.734Z,99.99
2016-08-10T02:41:01.458Z,99.99
2016-08-10T02:42:01.553Z,99.99
2016-08-10T02:43:00.784Z,99.99
2016-08-10T02:44:01.574Z,99.99
2016-08-10T02:45:01.530Z,99.99
2016-08-10T02:46:00.852Z,99.99
2016-08-10T02:47:01.572Z,99.99
2016-08-10T02:48:01.579Z,99.99
2016-08-10T02:49:01.605Z,99.99
2016-08-10T02:50:01.620Z,99.99
2016-08-10T02:51:01.644Z,99.99
2016-08-10T02:52:01.675Z,99.99
2016-08-10T02:53:01.683Z,99.99
2016-08-10T02:54:01.700Z,99.99
2016-08-10T02:55:01.826Z,99.99
2016-08-10T02:56:01.742Z,99.99
2016-08-10T02:57:01.858Z,99.99
2016-08-10T02:58:01.777Z,99.99
2016-08-10T02:59:01.803Z,99.99
2016-08-10T03:00:01.824Z,99.99
2016-08-10T03:01:01.126Z,99.99
2016-08-10T03:02:01.854Z,99.99
2016-08-10T03:03:01.881Z,99.99
2016-08-10T03:04:01.908Z,99.99
2016-08-10T03:05:01.914Z,99.99
2016-08-10T03:06:01.242Z,99.99
2016-08-10T03:07:01.249Z,99.99
2016-08-10T03:08:02.035Z,99.99
2016-08-10T03:09:01.992Z,99.99
2016-08-10T03:10:01.318Z,99.99
2016-08-10T03:11:01.331Z,99.99
2016-08-10T03:12:01.354Z,99.99
2016-08-10T03:13:02.063Z,99.99
2016-08-10T03:14:02.100Z,99.99
2016-08-10T03:15:02.103Z,99.99
2016-08-10T03:16:02.121Z,99.99
2016-08-10T03:17:02.153Z,99.99
2016-08-10T03:18:02.171Z,99.99
2016-08-10T03:19:02.183Z,99.99
2016-08-10T03:20:01.504Z,99.99
2016-08-10T03:21:01.517Z,99.99
2016-08-10T03:22:01.546Z,99.99
2016-08-10T03:23:01.555Z,99.99
2016-08-10T03:24:02.283Z,99.99
2016-08-10T03:25:02.300Z,99.99
2016-08-10T03:26:02.332Z,99.99
2016-08-10T03:27:01.629Z,99.99
2016-08-10T03:28:01.652Z,99.99
2016-08-10T03:29:01.661Z,99.99
2016-08-10T03:30:02.399Z,99.99
2016-08-10T03:31:02.430Z,99.99
2016-08-10T03:32:01.729Z,99.99
2016-08-10T03:33:02.460Z,99.99
2016-08-10T03:34:02.463Z,99.99
2016-08-10T03:35:02.492Z,99.99
2016-08-10T03:36:02.518Z,99.99
2016-08-10T03:37:02.537Z,99.99
2016-08-10T03:38:01.853Z,99.99
2016-08-10T03:39:01.863Z,99.99
2016-08-10T03:40:02.592Z,99.99
2016-08-10T03:41:02.600Z,99.99
2016-08-10T03:42:02.628Z,99.99
2016-08-10T03:43:02.662Z,99.99
2016-08-10T03:44:02.669Z,99.99
2016-08-10T03:45:01.974Z,99.99
2016-08-10T03:46:02.712Z,99.99
2016-08-10T03:47:02.744Z,99.99
2016-08-10T03:48:02.749Z,99.99
2016-08-10T03:49:02.057Z,99.99
2016-08-10T03:50:02.782Z,99.99
2016-08-10T03:51:02.096Z,99.99
2016-08-10T03:52:02.827Z,99.99
2016-08-10T03:53:02.144Z,99.99
2016-08-10T03:54:02.873Z,99.99
2016-08-10T03:55:02.172Z,99.99
2016-08-10T03:56:02.913Z,99.99
2016-08-10T03:57:02.923Z,99.99
2016-08-10T03:58:02.948Z,99.99
2016-08-10T03:59:02.952Z,99.99
2016-08-10T04:00:02.984Z,99.99
2016-08-10T04:01:02.991Z,99.99
2016-08-10T04:02:03.074Z,99.99
2016-08-10T04:03:03.047Z,99.99
2016-08-10T04:04:03.056Z,99.99
2016-08-10T04:05:03.072Z,99.99
2016-08-10T04:06:02.398Z,99.99
2016-08-10T04:07:03.123Z,99.99
2016-08-10T04:08:03.194Z,99.99
2016-08-10T04:09:02.510Z,99.99
2016-08-10T04:10:03.173Z,99.99
2016-08-10T04:11:03.204Z,99.99
2016-08-10T04:12:03.214Z,99.99
2016-08-10T04:13:03.231Z,99.99
2016-08-10T04:14:03.245Z,99.99
2016-08-10T04:15:03.324Z,99.99
2016-08-10T04:16:03.283Z,99.99
2016-08-10T04:17:03.312Z,99.99
2016-08-10T04:18:02.696Z,99.99
2016-08-10T04:19:03.344Z,99.99
2016-08-10T04:20:03.359Z,99.99
2016-08-10T04:21:02.674Z,99.99
2016-08-10T04:22:02.699Z,99.99
2016-08-10T04:23:02.723Z,99.99
2016-08-10T04:24:02.836Z,99.99
2016-08-10T04:25:03.464Z,99.99
2016-08-10T04:26:02.783Z,99.99
2016-08-10T04:27:03.504Z,99.99
2016-08-10T04:28:02.894Z,99.99
2016-08-10T04:29:03.544Z,99.99
2016-08-10T04:30:03.573Z,99.99
2016-08-10T04:31:03.594Z,99.99
2016-08-10T04:32:02.894Z,99.99
2016-08-10T04:33:03.625Z,99.99
2016-08-10T04:34:02.932Z,99.99
2016-08-10T04:35:03.085Z,99.99
2016-08-10T04:36:03.677Z,99.99
2016-08-10T04:37:03.099Z,99.99
2016-08-10T04:38:03.714Z,99.99
2016-08-10T04:39:03.745Z,99.99
2016-08-10T04:40:03.760Z,99.99
2016-08-10T04:41:03.783Z,99.99
2016-08-10T04:42:03.085Z,99.99
2016-08-10T04:43:03.823Z,99.99
2016-08-10T04:44:03.134Z,99.99
2016-08-10T04:45:03.856Z,99.99
2016-08-10T04:46:03.890Z,99.99
2016-08-10T04:47:03.187Z,99.99
2016-08-10T04:48:03.295Z,99.99
2016-08-10T04:49:03.225Z,99.99
2016-08-10T04:50:03.254Z,99.99
2016-08-10T04:51:03.973Z,99.99
2016-08-10T04:52:03.297Z,99.99
2016-08-10T04:53:04.014Z,99.99
2016-08-10T04:54:03.324Z,99.99
2016-08-10T04:55:03.339Z,99.99
2016-08-10T04:56:03.375Z,99.99
2016-08-10T04:57:03.381Z,99.99
2016-08-10T04:58:03.401Z,99.99
2016-08-10T04:59:04.326Z,99.99
2016-08-10T05:00:03.458Z,99.99
2016-08-10T05:01:04.185Z,99.99
2016-08-10T05:02:03.485Z,99.99
2016-08-10T05:03:03.503Z,99.99
2016-08-10T05:04:04.224Z,99.99
2016-08-10T05:05:03.553Z,99.99
2016-08-10T05:06:04.272Z,99.99
2016-08-10T05:07:04.294Z,99.99
2016-08-10T05:08:04.357Z,99.99
2016-08-10T05:09:04.332Z,99.99
2016-08-10T05:10:04.352Z,99.99
2016-08-10T05:11:03.652Z,99.99
2016-08-10T05:12:03.761Z,99.99
2016-08-10T05:13:03.695Z,99.99
2016-08-10T05:14:04.425Z,99.99
2016-08-10T05:15:03.750Z,99.99
2016-08-10T05:16:03.755Z,99.99
2016-08-10T05:17:04.485Z,99.99
2016-08-10T05:18:04.603Z,99.99
2016-08-10T05:19:03.814Z,99.99
2016-08-10T05:20:03.834Z,99.99
2016-08-10T05:21:04.575Z,99.99
2016-08-10T05:22:03.888Z,99.99
2016-08-10T05:23:04.603Z,99.99
2016-08-10T05:24:03.924Z,99.99
2016-08-10T05:25:03.935Z,99.99
2016-08-10T05:26:04.666Z,99.99
2016-08-10T05:27:04.684Z,99.99
2016-08-10T05:28:04.712Z,99.99
2016-08-10T05:29:04.013Z,99.99
2016-08-10T05:30:04.753Z,99.71
2016-08-10T05:31:04.054Z,99.71
2016-08-10T05:32:04.089Z,98.94
2016-08-10T05:33:04.806Z,98.9
2016-08-10T05:34:04.831Z,98.18
2016-08-10T05:35:04.141Z,97.56
2016-08-10T05:36:04.155Z,97.47
2016-08-10T05:37:04.882Z,97.47
2016-08-10T05:38:04.912Z,96.51
2016-08-10T05:39:04.225Z,96.42
2016-08-10T05:40:04.232Z,96.46
2016-08-10T05:41:04.262Z,96.08
2016-08-10T05:42:05.040Z,95.32
2016-08-10T05:43:04.318Z,95.03
2016-08-10T05:44:05.034Z,94.79
2016-08-10T05:45:05.044Z,94.31
2016-08-10T05:46:04.364Z,93.45
2016-08-10T05:47:04.402Z,92.97
2016-08-10T05:48:05.124Z,92.93
2016-08-10T05:49:05.131Z,91.88
2016-08-10T05:50:05.151Z,89.72
2016-08-10T05:51:05.174Z,89.72
2016-08-10T05:52:05.182Z,88.71
2016-08-10T05:53:05.262Z,89.24
2016-08-10T05:54:04.884Z,89.81
2016-08-10T05:55:05.323Z,90.3
2016-08-10T05:56:04.564Z,91.25
2016-08-10T05:57:05.303Z,91.35
2016-08-10T05:58:05.322Z,90.67
2016-08-10T05:59:05.347Z,91.16
2016-08-10T06:00:05.373Z,90.96
2016-08-10T06:01:04.678Z,90.82
2016-08-10T06:02:04.733Z,90.44
2016-08-10T06:03:05.427Z,90.73
2016-08-10T06:04:04.806Z,90.73
2016-08-10T06:05:05.472Z,91.2
2016-08-10T06:06:05.488Z,91.02
2016-08-10T06:07:05.508Z,90.16
2016-08-10T06:08:04.871Z,89.96
2016-08-10T06:09:05.100Z,90.44
2016-08-10T06:10:05.577Z,89.77
2016-08-10T06:11:05.764Z,88.62
2016-08-10T06:12:04.932Z,86.7
2016-08-10T06:13:04.944Z,82.86
2016-08-10T06:14:05.812Z,76.94
2016-08-10T06:15:05.801Z,70.27
2016-08-10T06:16:05.000Z,64.63
2016-08-10T06:17:05.763Z,61.74
2016-08-10T06:18:05.800Z,58.7
2016-08-10T06:19:05.827Z,57.51
2016-08-10T06:20:05.091Z,55.6
2016-08-10T06:21:05.824Z,54.73
2016-08-10T06:22:05.837Z,52.73
2016-08-10T06:23:05.160Z,50.52
2016-08-10T06:25:05.914Z,45.99
2016-08-10T06:26:05.234Z,43.92
2016-08-10T06:27:05.955Z,41.63
2016-08-10T06:28:05.282Z,39.43
2016-08-10T06:29:06.013Z,38.01
2016-08-10T06:30:06.051Z,36.11
2016-08-10T06:31:05.361Z,35.16
2016-08-10T06:32:06.104Z,33.8
2016-08-10T06:33:05.413Z,33.41
2016-08-10T06:34:05.443Z,33.23
2016-08-10T06:35:06.176Z,31.49
2016-08-10T06:36:05.493Z,31.41
2016-08-10T06:37:06.224Z,31.01
2016-08-10T06:38:06.253Z,31.13
2016-08-10T06:39:06.399Z,30.65
2016-08-10T06:40:06.301Z,30.26
2016-08-10T06:41:05.645Z,30.26
2016-08-10T06:42:05.662Z,28.53
2016-08-10T06:43:06.390Z,28.25
2016-08-10T06:44:06.419Z,28.34
2016-08-10T06:45:06.450Z,28.25
2016-08-10T06:46:05.779Z,28.64
2016-08-10T06:47:05.968Z,28.05
2016-08-10T06:48:06.552Z,28.54
2016-08-10T06:49:06.057Z,27.18
2016-08-10T06:50:06.613Z,26.79
2016-08-10T06:51:06.632Z,27.77
2016-08-10T06:52:06.687Z,27.17
2016-08-10T06:53:06.699Z,27.75
2016-08-10T06:54:06.022Z,29.3
2016-08-10T06:55:06.763Z,31.59
2016-08-10T06:56:06.783Z,31.99
2016-08-10T06:57:06.112Z,32.18
2016-08-10T06:58:06.143Z,32.67
2016-08-10T06:59:06.183Z,32.19
2016-08-10T07:00:06.927Z,32.78
2016-08-10T07:01:06.996Z,31.23
2016-08-10T07:02:06.348Z,32.79
2016-08-10T07:03:06.300Z,35.38
2016-08-10T07:04:07.038Z,38.15
2016-08-10T07:05:07.063Z,42.4
2016-08-10T07:06:07.115Z,45.81
2016-08-10T07:07:06.423Z,47.55
2016-08-10T07:08:07.232Z,46.8
2016-08-10T07:09:07.196Z,44.53
2016-08-10T07:10:07.262Z,42.07
2016-08-10T07:11:07.242Z,41.33
2016-08-10T07:12:07.280Z,40.39
2016-08-10T07:13:06.603Z,40.79
2016-08-10T07:14:07.327Z,39.32
2016-08-10T07:15:06.657Z,39.22
2016-08-10T07:16:07.392Z,39.8
2016-08-10T07:17:07.525Z,40.19
2016-08-10T07:18:07.470Z,39.61
2016-08-10T07:19:07.509Z,39.8
2016-08-10T07:20:06.810Z,38.27
2016-08-10T07:21:06.835Z,36.75
2016-08-10T07:22:07.584Z,35.13
2016-08-10T07:23:06.893Z,34.86
2016-08-10T07:24:07.631Z,35.15
2016-08-10T07:25:07.672Z,35.63
2016-08-10T07:26:07.065Z,36.08
2016-08-10T07:27:07.030Z,35.68
2016-08-10T07:28:07.102Z,35.11
2016-08-10T07:29:07.084Z,34.84
2016-08-10T07:30:07.833Z,34.27
2016-08-10T07:31:07.867Z,34.35
2016-08-10T07:32:07.184Z,33.11
2016-08-10T07:33:07.917Z,35.02
2016-08-10T07:34:07.945Z,37.37
2016-08-10T07:35:07.265Z,38.96
2016-08-10T07:36:08.014Z,38.79
2016-08-10T07:37:08.040Z,37.35
2016-08-10T07:38:08.069Z,36.73
2016-08-10T07:39:08.102Z,35.23
2016-08-10T07:40:08.175Z,33.65
2016-08-10T07:41:08.170Z,36.07
2016-08-10T07:42:08.212Z,35.84
2016-08-10T07:43:08.217Z,38.5
2016-08-10T07:44:08.247Z,40.4
2016-08-10T07:45:08.292Z,42.76
2016-08-10T07:46:07.617Z,43.61
2016-08-10T07:47:07.721Z,45.33
2016-08-10T07:48:08.373Z,44.46
2016-08-10T07:49:08.410Z,46.08
2016-08-10T07:50:08.442Z,46.17
2016-08-10T07:51:08.459Z,46.51
2016-08-10T07:52:08.489Z,48.18
2016-08-10T07:53:07.813Z,48.37
2016-08-10T07:54:08.555Z,46.56
2016-08-10T07:55:08.581Z,43.92
2016-08-10T07:56:07.912Z,41.47
2016-08-10T07:57:08.632Z,40.46
2016-08-10T07:58:08.652Z,40.46
2016-08-10T07:59:08.695Z,41.41
2016-08-10T08:00:08.723Z,39.69
2016-08-10T08:01:08.039Z,38.85
2016-08-10T08:02:08.073Z,37.82
2016-08-10T08:03:08.104Z,37.92
2016-08-10T08:04:08.852Z,39.34
2016-08-10T08:05:08.878Z,41.82
2016-08-10T08:06:08.893Z,43.13
2016-08-10T08:07:08.923Z,45.88
2016-08-10T08:08:08.286Z,47.58
2016-08-10T08:09:08.983Z,50.45
2016-08-10T08:10:08.300Z,51.29
2016-08-10T08:11:08.322Z,53.69
2016-08-10T08:12:09.073Z,54.98
2016-08-10T08:13:09.090Z,56.01
2016-08-10T08:14:08.413Z,57.34
2016-08-10T08:15:08.545Z,57.28
2016-08-10T08:16:09.186Z,59.72
2016-08-10T08:17:08.570Z,61.78
2016-08-10T08:18:08.684Z,63.67
2016-08-10T08:19:09.508Z,64.92
2016-08-10T08:20:09.929Z,65.75
2016-08-10T08:21:08.601Z,67.67
2016-08-10T08:22:09.443Z,68.91
2016-08-10T08:23:08.771Z,69.2
2016-08-10T08:24:08.793Z,69.53
2016-08-10T08:25:08.714Z,68.47
2016-08-10T08:26:09.443Z,66.55
2016-08-10T08:27:08.759Z,66.26
2016-08-10T08:28:08.842Z,66.07
2016-08-10T08:29:08.810Z,66.3
2016-08-10T08:30:09.951Z,64.82
2016-08-10T08:31:09.566Z,64.82
2016-08-10T08:32:09.639Z,65.23
2016-08-10T08:33:08.911Z,64.28
2016-08-10T08:34:09.334Z,65.62
2016-08-10T08:35:09.669Z,66.71
2016-08-10T08:36:10.096Z,65.81
2016-08-10T08:37:09.063Z,63.7
2016-08-10T08:38:10.088Z,63.12
2016-08-10T08:39:09.775Z,66.03
2016-08-10T08:40:09.084Z,67.73
2016-08-10T08:41:10.169Z,68.95
2016-08-10T08:42:09.840Z,71.4
2016-08-10T08:43:09.154Z,71.75
2016-08-10T08:44:09.183Z,73.28
2016-08-10T08:45:09.197Z,73.19
2016-08-10T08:46:09.930Z,71.88
2016-08-10T08:47:09.241Z,73.7
2016-08-10T08:48:09.275Z,71.31
2016-08-10T08:49:09.289Z,73.03
2016-08-10T08:50:09.350Z,70.92
2016-08-10T08:51:09.333Z,69.52
2016-08-10T08:52:09.371Z,70.09
2016-08-10T08:53:09.392Z,70.57
2016-08-10T08:54:10.118Z,69.33
2016-08-10T08:55:10.133Z,67.6
2016-08-10T08:56:10.168Z,67.79
2016-08-10T08:57:10.177Z,67.6
2016-08-10T08:58:09.502Z,67.41
2016-08-10T08:59:09.525Z,67.44
2016-08-10T09:00:10.262Z,69.36
2016-08-10T09:01:10.282Z,68.79
2016-08-10T09:02:10.302Z,67.96
2016-08-10T09:03:10.332Z,66.61
2016-08-10T09:04:10.333Z,66.16
2016-08-10T09:05:10.389Z,65.49
2016-08-10T09:06:09.681Z,63.41
2016-08-10T09:07:10.464Z,60.94
2016-08-10T09:08:09.729Z,60.56
2016-08-10T09:09:09.754Z,62.19
2016-08-10T09:10:10.490Z,58.15
2016-08-10T09:11:09.790Z,57.2
2016-08-10T09:12:09.823Z,59.22
2016-08-10T09:13:10.541Z,59.76
2016-08-10T09:14:10.567Z,61.78
2016-08-10T09:15:10.597Z,62.07
2016-08-10T09:16:10.623Z,62.45
2016-08-10T09:17:10.645Z,62.07
2016-08-10T09:18:10.677Z,61.33
2016-08-10T09:19:10.691Z,60.17
2016-08-10T09:20:10.002Z,58.09
2016-08-10T09:21:10.017Z,55.01
2016-08-10T09:22:10.753Z,55.88
2016-08-10T09:23:10.778Z,54.82
2016-08-10T09:24:10.812Z,53.38
2016-08-10T09:25:10.823Z,56.84
2016-08-10T09:26:10.852Z,54.94
2016-08-10T09:27:10.871Z,56.29
2016-08-10T09:28:10.899Z,57.09
2016-08-10T09:29:10.922Z,56.87
2016-08-10T09:30:10.963Z,56.48
2016-08-10T09:31:11.026Z,56.93
2016-08-10T09:32:10.995Z,57.42
2016-08-10T09:33:10.313Z,57.22
2016-08-10T09:34:11.052Z,57
2016-08-10T09:35:11.063Z,58.64
2016-08-10T09:36:11.089Z,60.53
2016-08-10T09:37:11.110Z,63.12
2016-08-10T09:38:11.138Z,60.98
2016-08-10T09:39:11.153Z,61.87
2016-08-10T09:40:10.476Z,61.17
2016-08-10T09:41:11.213Z,62.64
2016-08-10T09:42:10.533Z,62.07
2016-08-10T09:43:11.263Z,60.27
2016-08-10T09:44:11.279Z,58.86
2016-08-10T09:45:11.304Z,56.16
2016-08-10T09:46:11.323Z,56.65
2016-08-10T09:47:11.369Z,56.16
2016-08-10T09:48:11.370Z,54.89
2016-08-10T09:49:10.774Z,55.34
2016-08-10T09:50:11.416Z,56.27
2016-08-10T09:51:10.791Z,58.67
2016-08-10T09:52:11.467Z,59.89
2016-08-10T09:53:11.512Z,62.36
2016-08-10T09:54:11.514Z,65.43
2016-08-10T09:55:11.539Z,62.93
2016-08-10T09:56:10.868Z,63.22
2016-08-10T09:57:11.579Z,63.22
2016-08-10T09:58:11.617Z,62.16
2016-08-10T09:59:10.932Z,61.24
2016-08-10T10:00:11.670Z,63.83
2016-08-10T10:01:11.683Z,61.52
2016-08-10T10:02:11.718Z,63.45
2016-08-10T10:03:11.731Z,62.04
2016-08-10T10:04:11.741Z,61.65
2016-08-10T10:05:11.774Z,61.84
2016-08-10T10:06:11.799Z,60.4
2016-08-10T10:07:11.814Z,57.81
2016-08-10T10:08:11.184Z,57.62
2016-08-10T10:09:11.861Z,59.73
2016-08-10T10:10:11.893Z,58.96
2016-08-10T10:11:11.214Z,59.92
2016-08-10T10:12:11.232Z,58.99
2016-08-10T10:13:12.240Z,57.97
2016-08-10T10:14:11.981Z,57.2
2016-08-10T10:15:12.000Z,55.49
2016-08-10T10:16:12.023Z,50.61
2016-08-10T10:17:12.053Z,50.61
2016-08-10T10:18:12.063Z,54.85
2016-08-10T10:19:12.103Z,54.94
2016-08-10T10:20:11.411Z,55.62
2016-08-10T10:21:12.134Z,55.04
2016-08-10T10:22:12.154Z,56.43
2016-08-10T10:23:12.178Z,58.22
2016-08-10T10:24:12.211Z,60.85
2016-08-10T10:25:12.243Z,63.22
2016-08-10T10:26:12.259Z,65.11
2016-08-10T10:27:12.282Z,68.81
2016-08-10T10:28:11.606Z,71.37
2016-08-10T10:29:11.620Z,77.36
2016-08-10T10:30:12.347Z,80.96
2016-08-10T10:31:12.375Z,81.88
2016-08-10T10:32:12.393Z,82.98
2016-08-10T10:33:12.424Z,83.37
2016-08-10T10:34:12.444Z,86.1
2016-08-10T10:35:11.769Z,88.92
2016-08-10T10:36:12.477Z,88.34
2016-08-10T10:37:12.512Z,86.34
2016-08-10T10:38:12.533Z,87.44
2016-08-10T10:39:11.844Z,88.2
2016-08-10T10:40:12.570Z,87.25
2016-08-10T10:41:11.894Z,86.44
2016-08-10T10:42:11.913Z,87.21
2016-08-10T10:43:12.635Z,89.31
2016-08-10T10:44:12.663Z,86.16
2016-08-10T10:45:11.969Z,86.01
2016-08-10T10:46:12.704Z,88.3
2016-08-10T10:47:12.018Z,86.3
2016-08-10T10:48:12.744Z,84.96
2016-08-10T10:49:12.055Z,85.58
2016-08-10T10:50:12.787Z,80.9
2016-08-10T10:51:12.103Z,80.04
2016-08-10T10:52:12.123Z,83.23
2016-08-10T10:53:12.854Z,85.85
2016-08-10T10:54:12.864Z,85.22
2016-08-10T10:55:12.894Z,85.89
2016-08-10T10:56:12.926Z,86.41
2016-08-10T10:57:12.944Z,89.04
2016-08-10T10:58:12.504Z,90.39
2016-08-10T10:59:12.270Z,89.28
2016-08-10T11:00:12.301Z,88.17
2016-08-10T11:01:12.314Z,86.78
2016-08-10T11:02:12.330Z,86.21
2016-08-10T11:03:13.060Z,81.51
2016-08-10T11:04:12.374Z,81.12
2016-08-10T11:05:13.104Z,82.27
2016-08-10T11:06:12.422Z,81.22
2016-08-10T11:07:13.142Z,79.88
2016-08-10T11:08:12.475Z,82.32
2016-08-10T11:09:13.185Z,83.52
2016-08-10T11:10:12.594Z,81.41
2016-08-10T11:11:13.230Z,80.45
2016-08-10T11:12:12.553Z,81.27
2016-08-10T11:13:13.281Z,80.41
2016-08-10T11:14:13.333Z,79.74
2016-08-10T11:15:13.320Z,81.23
2016-08-10T11:16:12.634Z,82.76
2016-08-10T11:17:13.362Z,83.25
2016-08-10T11:18:12.678Z,83.49
2016-08-10T11:19:13.394Z,83.87
2016-08-10T11:20:13.417Z,83.78
2016-08-10T11:21:13.502Z,81.38
2016-08-10T11:22:13.472Z,83.49
2016-08-10T11:23:13.502Z,83.87
2016-08-10T11:24:12.795Z,85.41
2016-08-10T11:25:12.833Z,84.39
2016-08-10T11:26:12.844Z,83.44
2016-08-10T11:27:12.873Z,82.76
2016-08-10T11:28:13.603Z,83.92
2016-08-10T11:29:13.603Z,82.14
2016-08-10T11:30:13.637Z,79.64
2016-08-10T11:31:12.953Z,80.79
2016-08-10T11:32:12.982Z,82.23
2016-08-10T11:33:13.693Z,79.55
2016-08-10T11:34:13.818Z,80.7
2016-08-10T11:35:13.743Z,79.11
2016-08-10T11:36:13.870Z,78.88
2016-08-10T11:37:13.084Z,77.09
2016-08-10T11:38:13.792Z,80.03
2016-08-10T11:39:13.123Z,76.1
2016-08-10T11:41:13.872Z,77.73
2016-08-10T11:42:13.194Z,76.48
2016-08-10T11:43:13.914Z,76.67
2016-08-10T11:44:13.233Z,76.57
2016-08-10T11:45:13.960Z,78.49
2016-08-10T11:46:13.274Z,78.78
2016-08-10T11:47:13.294Z,76.81
2016-08-10T11:48:14.019Z,75.75
2016-08-10T11:49:13.442Z,78.63
2016-08-10T11:50:13.354Z,76.48
2016-08-10T11:51:14.091Z,77.38
2016-08-10T11:52:14.104Z,76.52
2016-08-10T11:53:13.419Z,75.85
2016-08-10T11:54:13.434Z,74.51
2016-08-10T11:56:13.492Z,70.76
2016-08-10T11:57:14.222Z,70.86
2016-08-10T11:58:14.232Z,71.92
2016-08-10T11:59:13.547Z,70.96
2016-08-10T12:00:14.301Z,71.82
2016-08-10T12:01:13.588Z,72.78
2016-08-10T12:02:14.324Z,73.77
2016-08-10T12:03:14.359Z,73.39
2016-08-10T12:04:14.371Z,70.13
2016-08-10T12:05:14.389Z,68.88
2016-08-10T12:06:13.701Z,69.4
2016-08-10T12:07:13.733Z,69.97
2016-08-10T12:08:14.518Z,69.4
2016-08-10T12:09:14.471Z,69.2
2016-08-10T12:10:14.491Z,66.74
2016-08-10T12:11:13.813Z,66.84
2016-08-10T12:12:14.554Z,66.97
2016-08-10T12:13:14.577Z,66.3
2016-08-10T12:14:14.602Z,66.14
2016-08-10T12:15:13.901Z,65.97
2016-08-10T12:16:14.638Z,63.48
2016-08-10T12:17:14.660Z,61.49
2016-08-10T12:18:14.686Z,62.16
2016-08-10T12:19:14.704Z,60.52
2016-08-10T12:20:14.723Z,59.75
2016-08-10T12:21:14.742Z,60.52
2016-08-10T12:22:14.772Z,60.97
2016-08-10T12:23:14.791Z,62.84
2016-08-10T12:24:14.869Z,66.64
2016-08-10T12:25:14.122Z,69.17
2016-08-10T12:26:14.864Z,72.2
2016-08-10T12:27:14.884Z,73.9
2016-08-10T12:28:14.202Z,75.29
2016-08-10T12:29:14.227Z,78.61
2016-08-10T12:30:14.260Z,80.19
2016-08-10T12:31:14.983Z,82.49
2016-08-10T12:32:15.001Z,83.4
2016-08-10T12:33:15.027Z,83.31
2016-08-10T12:34:14.332Z,82.54
2016-08-10T12:35:15.092Z,82.79
2016-08-10T12:36:15.087Z,83.56
2016-08-10T12:37:14.404Z,84.61
2016-08-10T12:38:15.138Z,84.27
2016-08-10T12:39:15.167Z,81.74
2016-08-10T12:40:15.187Z,79.93
2016-08-10T12:41:15.211Z,82.79
2016-08-10T12:42:15.239Z,82.51
2016-08-10T12:43:15.254Z,81.55
2016-08-10T12:44:15.293Z,82.54
2016-08-10T12:45:15.282Z,82.26
2016-08-10T12:46:15.323Z,80.82
2016-08-10T12:47:15.326Z,80.58
2016-08-10T12:48:14.742Z,80.67
2016-08-10T12:49:15.383Z,82.15
2016-08-10T12:50:14.691Z,82.92
2016-08-10T12:51:15.413Z,81.33
2016-08-10T12:52:15.511Z,78.55
2016-08-10T12:53:15.460Z,78.59
2016-08-10T12:54:15.483Z,76.57
2016-08-10T12:55:15.525Z,73.83
2016-08-10T12:56:15.521Z,72.78
2016-08-10T12:57:14.861Z,73.65
2016-08-10T12:58:14.861Z,73.1
2016-08-10T12:59:14.953Z,72.91
2016-08-10T13:00:14.914Z,70.03